Time;durP1;ratioP1;P1;durP2;ratioP2;P2;SDS_P1;SDS_P2;PMS_P1;PMS_P2;Temp;Humidity;BMP_temperature;BMP_pressure;BME280_temperature;BME280_humidity;BME280_pressure;Samples;Min_cycle;Max_cycle;Signal;HPM_P1;HPM_P2
2022/03/15 00:01:29;;;;;;;4.83;2.97;;;;;;;8.57;59.40;97571.84;5045103;28;20246;-56
2022/03/15 00:03:55;;;;;;;3.20;2.70;;;;;;;8.55;59.15;97573.72;5044902;28;20195;-56
2022/03/15 00:06:22;;;;;;;2.50;2.30;;;;;;;8.49;59.40;97561.00;5044838;28;20223;-55
2022/03/15 00:08:48;;;;;;;2.83;2.30;;;;;;;8.49;59.32;97555.72;5044027;28;20207;-55
2022/03/15 00:11:15;;;;;;;2.30;2.20;;;;;;;8.49;59.19;97561.84;5044627;28;20211;-56
2022/03/15 00:13:41;;;;;;;2.77;2.53;;;;;;;8.48;59.41;97559.28;5043750;28;20231;-55
2022/03/15 00:16:10;;;;;;;2.70;2.50;;;;;;;8.45;59.53;97564.78;5044379;28;20199;-55
2022/03/15 00:18:37;;;;;;;3.57;2.23;;;;;;;8.44;59.37;97571.84;5044183;28;20587;-56
2022/03/15 00:21:05;;;;;;;4.60;2.37;;;;;;;8.44;59.50;97571.00;5044706;28;20211;-55
2022/03/15 00:23:32;;;;;;;2.87;2.67;;;;;;;8.47;59.55;97562.88;5043910;28;20203;-55
2022/03/15 00:26:00;;;;;;;2.83;2.43;;;;;;;8.44;59.23;97563.94;5045119;28;20253;-55
2022/03/15 00:28:28;;;;;;;2.40;2.20;;;;;;;8.46;59.01;97563.84;5044780;28;20764;-55
2022/03/15 00:30:54;;;;;;;3.27;2.37;;;;;;;8.48;59.11;97565.41;5044404;28;20199;-55
2022/03/15 00:33:25;;;;;;;2.33;2.10;;;;;;;8.54;58.89;97568.59;5043831;28;20302;-55
2022/03/15 00:35:53;;;;;;;2.67;2.20;;;;;;;8.52;58.93;97571.31;5044158;28;20199;-55
2022/03/15 00:38:20;;;;;;;2.80;2.30;;;;;;;8.48;59.42;97565.41;5044270;28;20207;-55
2022/03/15 00:40:46;;;;;;;2.17;1.97;;;;;;;8.53;60.18;97562.47;5043902;28;20207;-56
2022/03/15 00:43:13;;;;;;;3.00;2.30;;;;;;;8.53;59.05;97557.19;5044689;28;20223;-55
2022/03/15 00:45:39;;;;;;;2.30;2.10;;;;;;;8.58;58.86;97565.59;5045262;28;20256;-55
2022/03/15 00:48:07;;;;;;;3.27;2.10;;;;;;;8.53;59.49;97561.63;5044923;28;20203;-56
2022/03/15 00:50:37;;;;;;;7.00;2.40;;;;;;;8.55;59.15;97555.28;5046503;28;20200;-56
2022/03/15 00:53:04;;;;;;;3.97;2.43;;;;;;;8.57;58.62;97569.22;5047342;28;20227;-55
2022/03/15 00:55:31;;;;;;;2.63;1.97;;;;;;;8.62;58.53;97561.81;5048421;28;20235;-55
2022/03/15 00:57:57;;;;;;;3.47;2.00;;;;;;;8.64;58.40;97566.97;5046969;28;20203;-54
2022/03/15 01:00:27;;;;;;;2.30;1.80;;;;;;;8.71;57.72;97566.44;5043092;28;20253;-55
2022/03/15 01:02:54;;;;;;;2.03;1.93;;;;;;;8.73;57.27;97561.03;5043039;28;20196;-55
2022/03/15 01:05:20;;;;;;;3.77;1.70;;;;;;;8.71;57.52;97558.53;5043293;28;20223;-56
2022/03/15 01:07:48;;;;;;;2.90;2.33;;;;;;;8.69;57.83;97565.69;5042811;28;20329;-55
2022/03/15 01:10:14;;;;;;;1.93;1.67;;;;;;;8.72;57.82;97560.19;5042456;28;20546;-54
2022/03/15 01:12:41;;;;;;;2.50;1.87;;;;;;;8.75;57.27;97572.34;5033225;28;20246;-54
2022/03/15 01:15:08;;;;;;;2.93;1.80;;;;;;;8.75;57.90;97580.25;5031711;28;20258;-54
2022/03/15 01:17:35;;;;;;;3.17;1.67;;;;;;;8.73;57.63;97582.97;5041772;28;20200;-54
2022/03/15 01:20:02;;;;;;;2.93;2.27;;;;;;;8.70;57.49;97580.56;5044086;28;20212;-54
2022/03/15 01:22:28;;;;;;;1.90;1.60;;;;;;;8.74;57.37;97574.13;5043059;28;20206;-55
2022/03/15 01:24:56;;;;;;;2.40;1.73;;;;;;;8.72;57.14;97585.72;5043528;28;20214;-55
2022/03/15 01:27:23;;;;;;;3.80;1.73;;;;;;;8.76;57.05;97585.41;5043239;28;20208;-55
2022/03/15 01:29:50;;;;;;;2.90;1.70;;;;;;;8.80;56.80;97586.88;5043578;28;20214;-55
2022/03/15 01:32:17;;;;;;;2.50;1.73;;;;;;;8.80;57.06;97589.50;5043987;28;20203;-56
2022/03/15 01:34:43;;;;;;;3.17;1.87;;;;;;;8.80;57.30;97592.16;5043987;28;20266;-52
2022/03/15 01:37:10;;;;;;;4.30;1.93;;;;;;;8.82;57.10;97584.94;5043920;28;20203;-52
2022/03/15 01:39:37;;;;;;;4.63;1.90;;;;;;;8.78;57.11;97587.94;5046855;28;20516;-53
2022/03/15 01:42:05;;;;;;;3.00;1.70;;;;;;;8.78;57.08;97585.31;5051848;28;20199;-54
2022/03/15 01:44:33;;;;;;;2.03;1.70;;;;;;;8.81;56.97;97580.66;5050608;28;20203;-54
2022/03/15 01:47:00;;;;;;;2.27;1.83;;;;;;;8.82;57.61;97581.50;5055646;28;20192;-55
2022/03/15 01:49:27;;;;;;;1.93;1.77;;;;;;;8.79;58.60;97584.31;5059183;28;20233;-54
2022/03/15 01:51:53;;;;;;;5.90;1.73;;;;;;;8.71;58.22;97587.53;5046617;28;20214;-54
2022/03/15 01:54:20;;;;;;;2.90;2.03;;;;;;;8.77;58.97;97589.72;5051900;28;20697;-55
2022/03/15 01:56:47;;;;;;;2.87;1.87;;;;;;;8.78;59.08;97588.78;5051515;28;20200;-56
2022/03/15 01:59:17;;;;;;;2.90;1.90;;;;;;;8.85;57.60;97582.13;5047777;28;20217;-56
2022/03/15 02:01:44;;;;;;;2.10;1.90;;;;;;;8.85;57.40;97584.75;5048190;28;20264;-56
2022/03/15 02:04:11;;;;;;;2.70;2.07;;;;;;;8.84;57.45;97590.97;5045770;28;20273;-56
2022/03/15 02:06:38;;;;;;;4.60;1.80;;;;;;;8.83;58.44;97599.00;5043370;28;20849;-53
2022/03/15 02:09:08;;;;;;;3.63;1.90;;;;;;;8.76;58.66;97598.59;5041772;28;20207;-55
2022/03/15 02:11:35;;;;;;;1.63;1.53;;;;;;;8.80;59.82;97594.78;5042919;28;20207;-54
2022/03/15 02:14:02;;;;;;;3.57;1.80;;;;;;;8.81;59.02;97604.41;5041965;28;20284;-55
2022/03/15 02:16:29;;;;;;;3.50;1.90;;;;;;;8.81;58.17;97598.28;5041807;28;20207;-55
2022/03/15 02:18:58;;;;;;;1.90;1.70;;;;;;;8.86;58.24;97604.03;5042452;28;20537;-55
2022/03/15 02:21:26;;;;;;;1.53;1.43;;;;;;;8.84;57.81;97603.31;5042076;28;20203;-55
2022/03/15 02:23:52;;;;;;;2.50;1.97;;;;;;;8.89;56.95;97595.94;5042163;28;20532;-54
2022/03/15 02:26:19;;;;;;;3.63;2.20;;;;;;;8.84;58.09;97590.97;5041327;28;20542;-56
2022/03/15 02:28:45;;;;;;;1.83;1.57;;;;;;;8.89;58.27;97595.94;5041742;28;20212;-56
2022/03/15 02:31:12;;;;;;;1.97;1.83;;;;;;;8.95;57.80;97600.75;5041389;28;20218;-56
2022/03/15 02:33:39;;;;;;;1.43;1.33;;;;;;;9.00;57.41;97610.03;5042586;28;20613;-57
2022/03/15 02:36:05;;;;;;;2.60;1.40;;;;;;;8.82;58.55;97606.06;5041572;28;20214;-54
2022/03/15 02:38:33;;;;;;;2.80;1.60;;;;;;;8.81;58.68;97603.53;5041522;28;20212;-56
2022/03/15 02:41:00;;;;;;;1.70;1.57;;;;;;;8.82;58.18;97606.06;5041532;28;20217;-56
2022/03/15 02:43:26;;;;;;;2.73;1.70;;;;;;;8.83;58.18;97612.19;5044750;28;20208;-56
2022/03/15 02:45:53;;;;;;;7.37;1.60;;;;;;;8.79;58.50;97611.56;5044001;28;20222;-56
2022/03/15 02:48:19;;;;;;;2.00;1.80;;;;;;;8.79;58.95;97616.81;5043145;28;20215;-55
2022/03/15 02:50:46;;;;;;;5.30;2.10;;;;;;;8.81;58.76;97614.09;5041409;28;20212;-54
2022/03/15 02:53:14;;;;;;;2.20;1.57;;;;;;;8.80;58.63;97613.25;5041263;28;20227;-55
2022/03/15 02:55:41;;;;;;;2.30;2.10;;;;;;;8.77;59.37;97612.63;5040972;28;20203;-55
2022/03/15 02:58:08;;;;;;;3.33;1.93;;;;;;;8.75;59.98;97612.72;5041577;28;20520;-56
2022/03/15 03:00:35;;;;;;;3.07;1.60;;;;;;;8.75;59.70;97612.72;5040464;28;20639;-56
2022/03/15 03:03:02;;;;;;;2.50;2.07;;;;;;;8.77;59.21;97617.91;5041743;28;20199;-56
2022/03/15 03:05:28;;;;;;;2.83;1.70;;;;;;;8.74;59.72;97620.75;5041088;28;20231;-56
2022/03/15 03:07:55;;;;;;;2.70;1.80;;;;;;;8.75;59.51;97620.63;5041757;28;20207;-56
2022/03/15 03:10:21;;;;;;;2.30;2.00;;;;;;;8.68;60.95;97619.38;5042649;28;20231;-56
2022/03/15 03:12:51;;;;;;;1.67;1.57;;;;;;;8.66;60.65;97620.44;5047337;28;20238;-56
2022/03/15 03:15:22;;;;;;;2.37;1.93;;;;;;;8.67;60.79;97615.06;5045081;28;20323;-55
2022/03/15 03:17:49;;;;;;;3.23;1.83;;;;;;;8.60;61.92;97619.09;5043729;28;20191;-54
2022/03/15 03:20:18;;;;;;;2.20;2.00;;;;;;;8.59;61.80;97620.03;5045492;28;20261;-55
2022/03/15 03:22:46;;;;;;;1.70;1.60;;;;;;;8.60;60.43;97618.25;5044715;28;20195;-56
2022/03/15 03:25:13;;;;;;;3.07;2.00;;;;;;;8.59;60.27;97625.31;5044918;28;20196;-56
2022/03/15 03:27:39;;;;;;;2.43;1.73;;;;;;;8.61;60.17;97620.75;5045917;28;20249;-57
2022/03/15 03:30:09;;;;;;;2.27;1.63;;;;;;;8.53;62.30;97620.47;5045209;28;20230;-55
2022/03/15 03:32:36;;;;;;;2.30;2.07;;;;;;;8.52;62.31;97629.31;5047930;28;20565;-56
2022/03/15 03:35:05;;;;;;;3.60;2.10;;;;;;;8.51;62.55;97627.63;5049951;28;20234;-53
2022/03/15 03:37:34;;;;;;;3.13;2.00;;;;;;;8.50;66.65;97631.22;5048206;28;20230;-55
2022/03/15 03:40:05;;;;;;;2.03;1.93;;;;;;;8.51;67.05;97640.78;5045000;28;20636;-55
2022/03/15 03:42:31;;;;;;;2.77;1.93;;;;;;;8.43;67.18;97636.06;5044784;28;20199;-56
2022/03/15 03:44:58;;;;;;;4.07;2.47;;;;;;;8.43;68.20;97636.06;5044862;28;20205;-55
2022/03/15 03:47:25;;;;;;;3.93;2.37;;;;;;;8.32;71.14;97635.97;5044444;28;20207;-54
2022/03/15 03:49:52;;;;;;;2.07;1.83;;;;;;;8.42;71.16;97636.19;5044797;28;20212;-54
2022/03/15 03:52:19;;;;;;;3.10;2.10;;;;;;;8.40;72.34;97638.91;5044984;28;20510;-54
2022/03/15 03:54:45;;;;;;;3.00;2.60;;;;;;;8.46;70.24;97635.03;5043833;28;20238;-53
2022/03/15 03:57:12;;;;;;;4.20;2.47;;;;;;;8.45;70.58;97633.31;5044675;28;20220;-53
2022/03/15 03:59:39;;;;;;;2.30;2.20;;;;;;;8.49;71.17;97629.53;5045893;28;20595;-54
2022/03/15 04:02:06;;;;;;;3.70;2.40;;;;;;;8.40;72.35;97638.06;5044454;28;20246;-54
2022/03/15 04:04:33;;;;;;;4.47;2.23;;;;;;;8.34;72.64;97627.94;5044552;28;20211;-53
2022/03/15 04:07:02;;;;;;;2.53;2.20;;;;;;;8.35;72.43;97627.00;5043815;28;20203;-54
2022/03/15 04:09:28;;;;;;;3.20;2.73;;;;;;;8.33;73.45;97623.63;5044539;28;20249;-54
2022/03/15 04:11:56;;;;;;;2.23;1.93;;;;;;;8.23;74.10;97615.47;5043003;28;20237;-54
2022/03/15 04:14:22;;;;;;;3.23;2.37;;;;;;;8.22;75.62;97620.88;5045210;28;20228;-53
2022/03/15 04:16:49;;;;;;;3.70;2.80;;;;;;;8.10;77.03;97627.78;5044693;28;20271;-54
2022/03/15 04:19:17;;;;;;;2.60;2.40;;;;;;;8.06;77.34;97622.81;5044630;28;20286;-54
2022/03/15 04:21:45;;;;;;;3.87;2.90;;;;;;;8.08;76.78;97624.41;5044688;28;20313;-53
2022/03/15 04:24:14;;;;;;;3.10;2.80;;;;;;;7.96;76.17;97623.47;5044014;28;20649;-55
2022/03/15 04:26:41;;;;;;;3.80;2.67;;;;;;;7.97;77.21;97627.75;5044878;28;20203;-54
2022/03/15 04:29:08;;;;;;;4.30;2.60;;;;;;;7.89;78.78;97619.56;5044586;28;20544;-54
2022/03/15 04:31:36;;;;;;;3.97;2.70;;;;;;;7.88;79.54;97617.00;5044534;28;20195;-53
2022/03/15 04:34:02;;;;;;;5.27;3.13;;;;;;;7.84;79.69;97621.63;5044079;28;20228;-53
2022/03/15 04:36:29;;;;;;;5.20;2.70;;;;;;;7.67;82.38;97611.38;5044784;28;20218;-53
2022/03/15 04:38:58;;;;;;;3.43;2.70;;;;;;;7.73;82.13;97621.50;5043997;28;20230;-54
2022/03/15 04:41:26;;;;;;;4.13;2.90;;;;;;;7.73;83.07;97621.50;5044724;28;20290;-54
2022/03/15 04:43:52;;;;;;;3.57;2.73;;;;;;;7.64;84.20;97624.75;5045011;28;20215;-54
2022/03/15 04:46:20;;;;;;;3.20;2.90;;;;;;;7.52;85.90;97633.44;5051815;28;20195;-53
2022/03/15 04:48:46;;;;;;;3.37;2.80;;;;;;;7.51;86.20;97622.06;5051423;28;20301;-54
2022/03/15 04:51:14;;;;;;;3.43;2.70;;;;;;;7.45;86.96;97629.53;5049654;28;20212;-53
2022/03/15 04:53:40;;;;;;;3.17;2.40;;;;;;;7.47;87.92;97635.56;5049835;28;20204;-54
2022/03/15 04:56:08;;;;;;;2.77;2.57;;;;;;;7.47;87.25;97632.91;5044166;28;20522;-54
2022/03/15 04:58:35;;;;;;;4.03;2.77;;;;;;;7.49;86.99;97633.66;5044722;28;20234;-54
2022/03/15 05:01:03;;;;;;;4.33;3.10;;;;;;;7.54;86.04;97636.84;5044252;28;20235;-53
2022/03/15 05:03:29;;;;;;;3.57;2.70;;;;;;;7.54;86.27;97639.47;5043250;28;20191;-52
2022/03/15 05:05:56;;;;;;;5.17;2.53;;;;;;;7.50;87.36;97644.09;5044318;28;20196;-53
2022/03/15 05:08:22;;;;;;;6.47;2.60;;;;;;;7.49;87.30;97646.81;5043377;28;20200;-53
2022/03/15 05:11:07;;;;;;;5.73;3.10;;;;;;;7.46;87.90;97644.38;5044159;28;20513;-54
2022/03/15 05:13:37;;;;;;;4.47;2.80;;;;;;;7.46;88.20;97647.00;5046763;28;20203;-54
2022/03/15 05:16:04;;;;;;;3.90;2.60;;;;;;;7.40;90.35;97648.25;5049901;28;20590;-55
2022/03/15 05:18:31;;;;;;;3.97;2.73;;;;;;;7.41;89.14;97651.72;5046120;28;20230;-54
2022/03/15 05:20:57;;;;;;;3.63;3.00;;;;;;;7.41;90.25;97654.34;5043092;28;20234;-54
2022/03/15 05:23:24;;;;;;;2.70;2.50;;;;;;;7.37;90.70;97647.59;5046645;28;20417;-54
2022/03/15 05:25:50;;;;;;;3.50;2.50;;;;;;;7.36;91.80;97644.16;5046945;28;20260;-55
2022/03/15 05:28:17;;;;;;;2.90;2.60;;;;;;;7.41;91.18;97647.31;5045377;28;20196;-54
2022/03/15 05:30:44;;;;;;;3.97;3.00;;;;;;;7.41;90.98;97655.19;5042803;28;20207;-56
2022/03/15 05:33:11;;;;;;;3.83;2.90;;;;;;;7.42;91.95;97650.78;5042469;28;20219;-54
2022/03/15 05:35:37;;;;;;;2.67;2.47;;;;;;;7.41;90.65;97655.19;5042152;28;20211;-54
2022/03/15 05:38:04;;;;;;;3.40;2.70;;;;;;;7.44;90.86;97655.00;5043470;28;20214;-54
2022/03/15 05:40:31;;;;;;;4.87;2.80;;;;;;;7.36;90.95;97662.56;5042495;28;20212;-55
2022/03/15 05:42:57;;;;;;;6.87;3.40;;;;;;;7.40;92.03;97664.03;5043005;28;20223;-54
2022/03/15 05:45:24;;;;;;;3.27;2.93;;;;;;;7.43;91.48;97666.50;5042860;28;20207;-54
2022/03/15 05:47:52;;;;;;;3.77;3.20;;;;;;;7.35;92.20;97660.88;5042508;28;20643;-54
2022/03/15 05:50:19;;;;;;;5.03;3.13;;;;;;;7.38;92.40;97650.13;5041481;28;20196;-54
2022/03/15 05:52:46;;;;;;;5.07;3.03;;;;;;;7.39;92.29;97656.25;5042436;28;20211;-54
2022/03/15 05:55:13;;;;;;;4.80;2.93;;;;;;;7.43;91.53;97655.13;5042286;28;20585;-55
2022/03/15 05:57:39;;;;;;;5.60;3.00;;;;;;;7.42;91.76;97656.03;5042202;28;20640;-54
2022/03/15 06:00:06;;;;;;;3.13;2.83;;;;;;;7.34;92.62;97648.63;5042884;28;20628;-54
2022/03/15 06:02:34;;;;;;;3.77;2.93;;;;;;;7.34;92.11;97642.53;5042246;28;20350;-54
2022/03/15 06:05:03;;;;;;;3.13;2.83;;;;;;;7.36;93.48;97645.94;5042196;28;20215;-55
2022/03/15 06:07:32;;;;;;;4.47;3.20;;;;;;;7.40;92.88;97655.31;5041952;28;20196;-54
2022/03/15 06:09:59;;;;;;;5.23;3.87;;;;;;;7.38;92.13;97654.56;5042472;28;20230;-54
2022/03/15 06:12:25;;;;;;;3.47;2.97;;;;;;;7.38;92.66;97657.19;5042564;28;20231;-55
2022/03/15 06:14:52;;;;;;;6.43;3.40;;;;;;;7.40;92.62;97660.56;5041615;28;20605;-55
2022/03/15 06:17:18;;;;;;;3.70;3.40;;;;;;;7.41;92.45;97670.13;5042145;28;20215;-55
2022/03/15 06:19:46;;;;;;;3.77;3.37;;;;;;;7.41;92.20;97659.63;5049103;28;20207;-54
2022/03/15 06:22:14;;;;;;;3.83;3.53;;;;;;;7.39;93.58;97661.50;5052013;28;20207;-55
2022/03/15 06:24:41;;;;;;;6.67;3.57;;;;;;;7.38;94.16;97659.81;5048045;28;20203;-55
2022/03/15 06:27:07;;;;;;;4.13;3.40;;;;;;;7.39;94.05;97661.50;5042844;28;21249;-55
2022/03/15 06:29:35;;;;;;;3.97;3.57;;;;;;;7.38;94.32;97649.28;5041993;28;20204;-55
2022/03/15 06:32:01;;;;;;;4.80;3.33;;;;;;;7.40;94.62;97661.41;5040550;28;20223;-55
2022/03/15 06:34:28;;;;;;;4.07;3.73;;;;;;;7.49;93.64;97663.44;5042258;28;20602;-54
2022/03/15 06:36:54;;;;;;;3.80;3.50;;;;;;;7.59;92.74;97663.69;5041793;28;20273;-55
2022/03/15 06:39:22;;;;;;;5.13;3.90;;;;;;;7.62;91.75;97663.47;5041954;28;20560;-55
2022/03/15 06:41:49;;;;;;;3.90;3.60;;;;;;;7.69;91.32;97664.78;5042519;28;20655;-54
2022/03/15 06:44:15;;;;;;;6.63;4.40;;;;;;;7.73;90.44;97660.16;5042605;28;20238;-55
2022/03/15 06:46:42;;;;;;;4.43;3.90;;;;;;;7.77;90.50;97661.63;5041705;28;20212;-55
2022/03/15 06:49:09;;;;;;;4.87;3.90;;;;;;;7.73;90.76;97662.78;5042079;28;20513;-54
2022/03/15 06:51:35;;;;;;;5.27;4.23;;;;;;;7.63;92.55;97659.91;5042380;28;20559;-55
2022/03/15 06:54:06;;;;;;;5.27;4.03;;;;;;;7.63;91.48;97659.06;5043415;28;20191;-54
2022/03/15 06:56:34;;;;;;;4.87;4.37;;;;;;;7.66;91.52;97672.03;5046221;28;20299;-54
2022/03/15 06:59:01;;;;;;;6.47;4.30;;;;;;;7.64;92.26;97663.41;5046083;28;20207;-53
2022/03/15 07:01:27;;;;;;;4.60;4.20;;;;;;;7.66;93.24;97667.63;5045927;28;20235;-55
2022/03/15 07:03:53;;;;;;;5.23;4.73;;;;;;;7.63;91.18;97662.53;5045973;28;20215;-54
2022/03/15 07:06:20;;;;;;;5.57;4.23;;;;;;;7.63;91.49;97653.81;5046329;28;20206;-55
2022/03/15 07:08:46;;;;;;;7.40;4.50;;;;;;;7.62;92.25;97652.94;5045520;28;20703;-55
2022/03/15 07:11:13;;;;;;;5.20;4.30;;;;;;;7.67;92.96;97658.78;5046502;28;20333;-54
2022/03/15 07:13:41;;;;;;;5.00;4.50;;;;;;;7.73;92.95;97655.72;5045356;28;20206;-56
2022/03/15 07:16:07;;;;;;;5.13;4.63;;;;;;;7.80;93.07;97654.38;5046016;28;20670;-53
2022/03/15 07:18:34;;;;;;;6.33;4.27;;;;;;;7.80;93.09;97646.47;5045911;28;20329;-58
2022/03/15 07:21:00;;;;;;;7.47;4.77;;;;;;;7.80;94.60;97641.22;5045773;28;20212;-61
2022/03/15 07:23:27;;;;;;;4.77;4.37;;;;;;;7.82;94.57;97634.06;5045170;28;20199;-58
2022/03/15 07:25:53;;;;;;;4.40;4.00;;;;;;;7.83;93.59;97622.56;5055627;28;20196;-52
2022/03/15 07:28:20;;;;;;;5.13;4.43;;;;;;;7.83;94.67;97619.94;5048066;28;20282;-55
2022/03/15 07:30:48;;;;;;;5.77;4.00;;;;;;;7.85;94.81;97618.06;5046123;28;20223;-55
2022/03/15 07:33:14;;;;;;;6.53;4.70;;;;;;;7.77;94.25;97603.72;5045259;28;20207;-54
2022/03/15 07:35:41;;;;;;;4.60;4.10;;;;;;;7.74;93.45;97603.91;5044446;28;20227;-55
2022/03/15 07:38:08;;;;;;;5.37;4.20;;;;;;;7.82;94.61;97597.22;5045978;28;20211;-54
2022/03/15 07:40:34;;;;;;;6.40;4.73;;;;;;;7.85;94.86;97597.00;5045780;28;20211;-53
2022/03/15 07:43:01;;;;;;;6.00;4.30;;;;;;;7.90;94.88;97604.59;5046925;28;20215;-55
2022/03/15 07:45:28;;;;;;;5.93;4.50;;;;;;;7.86;95.02;97608.38;5043474;28;20230;-54
2022/03/15 07:47:55;;;;;;;5.93;4.70;;;;;;;7.79;95.84;97612.38;5045887;28;20214;-56
2022/03/15 07:50:22;;;;;;;5.07;4.50;;;;;;;7.89;95.00;97616.06;5045876;28;20208;-54
2022/03/15 07:52:52;;;;;;;7.73;4.53;;;;;;;7.85;94.88;97607.53;5047850;28;20218;-55
2022/03/15 07:55:21;;;;;;;6.37;4.10;;;;;;;7.86;94.56;97598.69;5048076;28;20216;-54
2022/03/15 07:57:49;;;;;;;5.27;4.53;;;;;;;7.86;94.76;97598.69;5049615;28;20261;-54
2022/03/15 08:00:16;;;;;;;5.90;4.27;;;;;;;7.86;94.58;97592.59;5050152;28;20659;-53
2022/03/15 08:02:43;;;;;;;4.83;4.43;;;;;;;7.85;94.68;97583.84;5009801;28;20490;-54
2022/03/15 08:05:11;;;;;;;8.30;4.43;;;;;;;7.82;96.07;97584.03;5005607;28;20205;-54
2022/03/15 08:07:37;;;;;;;5.43;4.50;;;;;;;7.87;95.96;97584.56;5008441;28;20208;-55
2022/03/15 08:10:05;;;;;;;7.63;4.73;;;;;;;7.89;95.45;97574.78;5013879;28;20201;-54
2022/03/15 08:12:33;;;;;;;4.90;3.90;;;;;;;7.95;95.41;97590.16;5018478;28;20573;-55
2022/03/15 08:14:59;;;;;;;6.43;4.07;;;;;;;7.90;96.48;97576.44;5021252;28;20259;-55
2022/03/15 08:17:28;;;;;;;4.87;4.37;;;;;;;7.95;95.81;97587.53;5017533;28;20304;-55
2022/03/15 08:19:57;;;;;;;5.77;4.60;;;;;;;8.04;94.91;97579.97;5020133;28;20243;-54
2022/03/15 08:22:25;;;;;;;8.40;5.23;;;;;;;8.01;93.74;97581.84;5011602;28;20289;-53
2022/03/15 08:24:52;;;;;;;7.27;5.03;;;;;;;7.96;94.48;97586.59;5011501;28;20205;-55
2022/03/15 08:27:19;;;;;;;6.93;4.63;;;;;;;7.97;94.51;97580.34;5019184;28;20201;-54
2022/03/15 08:29:45;;;;;;;5.77;4.63;;;;;;;7.89;96.32;97572.16;5013824;28;20219;-54
2022/03/15 08:32:12;;;;;;;5.70;4.60;;;;;;;7.84;95.93;97562.84;5017281;28;20201;-54
2022/03/15 08:34:42;;;;;;;4.80;4.33;;;;;;;7.95;97.09;97563.81;5016567;28;20205;-54
2022/03/15 08:37:08;;;;;;;7.17;4.87;;;;;;;7.95;96.74;97555.91;5014160;28;20209;-55
2022/03/15 08:39:37;;;;;;;5.60;4.20;;;;;;;7.98;98.07;97549.59;5011951;28;20212;-54
2022/03/15 08:42:04;;;;;;;5.27;4.77;;;;;;;8.09;97.57;97540.94;5011552;28;20221;-54
2022/03/15 08:44:31;;;;;;;5.23;4.73;;;;;;;8.20;96.79;97536.63;5008064;28;20207;-55
2022/03/15 08:46:59;;;;;;;5.77;4.87;;;;;;;8.17;95.53;97533.38;5005516;28;20292;-54
2022/03/15 08:49:27;;;;;;;7.00;5.33;;;;;;;8.17;95.64;97543.91;5004338;28;20649;-54
2022/03/15 08:51:53;;;;;;;7.90;4.77;;;;;;;8.15;94.04;97540.56;5004479;28;20236;-54
2022/03/15 08:54:20;;;;;;;8.43;5.33;;;;;;;8.15;94.05;97545.81;5003787;28;20225;-54
2022/03/15 08:56:48;;;;;;;5.77;4.97;;;;;;;8.16;94.47;97544.84;5004052;28;20232;-55
2022/03/15 08:59:16;;;;;;;5.90;4.90;;;;;;;8.16;94.75;97545.69;5005277;28;20232;-53
2022/03/15 09:01:43;;;;;;;6.70;5.00;;;;;;;8.14;94.13;97538.84;5044577;28;20238;-54
2022/03/15 09:04:10;;;;;;;8.53;5.47;;;;;;;8.21;94.82;97545.38;5069353;28;20202;-54
2022/03/15 09:06:38;;;;;;;5.90;5.10;;;;;;;8.14;93.77;97530.94;5051848;28;20200;-54
2022/03/15 09:09:07;;;;;;;6.97;5.13;;;;;;;8.18;93.14;97529.78;5045265;28;20218;-53
2022/03/15 09:11:34;;;;;;;6.67;5.87;;;;;;;8.17;92.25;97534.22;5044365;28;20215;-53
2022/03/15 09:14:02;;;;;;;5.13;4.73;;;;;;;8.14;91.73;97530.94;5045465;28;20200;-54
2022/03/15 09:16:29;;;;;;;5.87;5.27;;;;;;;8.17;92.06;97522.84;5045393;28;20218;-53
2022/03/15 09:18:57;;;;;;;8.00;4.97;;;;;;;8.19;92.65;97526.19;5045685;28;20203;-54
2022/03/15 09:21:24;;;;;;;5.77;4.67;;;;;;;8.11;92.35;97523.25;5043451;28;20191;-53
2022/03/15 09:23:51;;;;;;;6.37;4.77;;;;;;;8.02;91.66;97525.59;5045975;28;20207;-53
2022/03/15 09:26:18;;;;;;;7.77;5.07;;;;;;;8.12;92.18;97525.78;5046058;28;20204;-53
2022/03/15 09:28:45;;;;;;;6.90;4.63;;;;;;;8.10;89.71;97511.03;5045492;28;20200;-53
2022/03/15 09:31:13;;;;;;;6.20;4.33;;;;;;;8.01;88.35;97505.44;5044891;28;20206;-53
2022/03/15 09:33:41;;;;;;;4.77;4.37;;;;;;;7.95;89.44;97497.97;5045716;28;20213;-53
2022/03/15 09:36:07;;;;;;;6.20;4.37;;;;;;;7.89;88.39;97487.88;5043479;28;20790;-53
2022/03/15 09:38:34;;;;;;;5.43;4.30;;;;;;;7.92;87.42;97487.66;5044571;28;20203;-54
2022/03/15 09:41:04;;;;;;;6.43;4.13;;;;;;;7.98;89.09;97476.69;5039686;28;20242;-54
2022/03/15 09:43:36;;;;;;;7.03;4.10;;;;;;;7.98;88.17;97481.97;5043089;28;20238;-54
2022/03/15 09:46:04;;;;;;;6.60;4.70;;;;;;;7.93;88.23;97468.28;5042964;28;20218;-54
2022/03/15 09:48:32;;;;;;;4.53;4.00;;;;;;;7.94;88.19;97458.56;5043582;28;20224;-54
2022/03/15 09:50:59;;;;;;;6.37;4.87;;;;;;;7.93;89.52;97460.38;5043396;28;20212;-54
2022/03/15 09:53:25;;;;;;;6.50;4.27;;;;;;;7.98;89.40;97450.34;5043288;28;20628;-55
2022/03/15 09:55:53;;;;;;;6.00;4.07;;;;;;;7.95;87.67;97445.31;5050848;28;20219;-54
2022/03/15 09:58:22;;;;;;;7.80;4.10;;;;;;;7.91;87.05;97437.72;5056754;28;20208;-55
2022/03/15 10:00:52;;;;;;;4.87;4.20;;;;;;;8.01;86.72;97431.69;5048265;28;20584;-55
2022/03/15 10:03:18;;;;;;;4.03;3.73;;;;;;;7.99;87.03;97423.06;5042684;28;20188;-53
2022/03/15 10:05:49;;;;;;;8.90;4.90;;;;;;;7.97;88.47;97422.31;5043207;28;20399;-55
2022/03/15 10:08:16;;;;;;;7.43;4.30;;;;;;;8.07;88.59;97421.69;5041434;28;20285;-55
2022/03/15 10:10:42;;;;;;;5.93;4.47;;;;;;;8.05;89.02;97413.03;5042340;28;20192;-55
2022/03/15 10:13:09;;;;;;;6.07;4.20;;;;;;;8.08;88.91;97412.84;5042430;28;20222;-55
2022/03/15 10:15:36;;;;;;;8.47;4.47;;;;;;;8.07;89.18;97406.72;5042480;28;20225;-55
2022/03/15 10:18:05;;;;;;;7.97;4.97;;;;;;;8.11;89.83;97391.53;5043407;28;20211;-55
2022/03/15 10:20:40;;;;;;;6.27;4.70;;;;;;;8.19;89.29;97384.75;5042775;28;20633;-55
2022/03/15 10:23:09;;;;;;;5.93;5.27;;;;;;;8.16;87.76;97386.78;5043713;28;20625;-55
2022/03/15 10:25:36;;;;;;;5.93;4.80;;;;;;;8.23;88.61;97374.84;5042557;28;20651;-54
2022/03/15 10:28:04;;;;;;;8.83;4.87;;;;;;;8.27;88.11;97371.03;5043136;28;20214;-54
2022/03/15 10:30:31;;;;;;;5.83;4.80;;;;;;;8.32;88.14;97363.69;5044789;28;20203;-54
2022/03/15 10:32:58;;;;;;;6.23;4.47;;;;;;;8.37;87.85;97351.00;5043611;28;20548;-54
2022/03/15 10:35:26;;;;;;;5.03;4.40;;;;;;;8.48;88.60;97343.16;5044775;28;20207;-54
2022/03/15 10:37:54;;;;;;;7.47;4.97;;;;;;;8.42;88.32;97338.34;5044251;28;20206;-53
2022/03/15 10:40:33;;;;;;;7.50;5.17;;;;;;;8.56;89.65;97340.78;5058547;28;20211;-53
2022/03/15 10:43:06;;;;;;;8.13;4.73;;;;;;;8.69;87.81;97333.66;5063523;28;20193;-54
2022/03/15 10:45:34;;;;;;;7.57;5.23;;;;;;;8.69;87.31;97317.81;5066840;28;20184;-53
2022/03/15 10:48:01;;;;;;;6.63;4.77;;;;;;;8.68;87.27;97324.03;5046586;28;20602;-53
2022/03/15 10:50:29;;;;;;;6.23;4.80;;;;;;;8.76;87.53;97315.56;5041134;28;20294;-54
2022/03/15 10:52:57;;;;;;;6.43;4.60;;;;;;;8.79;88.20;97304.78;5042812;28;20290;-54
2022/03/15 10:55:28;;;;;;;7.93;5.13;;;;;;;8.73;85.07;97310.53;5043647;28;20220;-53
2022/03/15 10:57:57;;;;;;;9.57;5.10;;;;;;;8.79;85.64;97300.34;5042055;28;20193;-54
2022/03/15 11:00:28;;;;;;;7.30;4.73;;;;;;;8.87;85.39;97302.41;5042035;28;20210;-54
2022/03/15 11:02:56;;;;;;;5.33;4.70;;;;;;;8.85;85.74;97297.28;5043345;28;20294;-54
2022/03/15 11:05:29;;;;;;;6.13;4.60;;;;;;;8.90;84.47;97297.75;5049940;28;20655;-54
2022/03/15 11:07:57;;;;;;;10.67;5.37;;;;;;;8.93;85.56;97300.13;5047562;28;20208;-54
2022/03/15 11:10:24;;;;;;;6.37;4.83;;;;;;;8.93;84.02;97302.78;5046258;28;20280;-54
2022/03/15 11:12:57;;;;;;;6.27;4.67;;;;;;;9.03;83.83;97302.94;5046994;28;20203;-54
2022/03/15 11:15:30;;;;;;;8.17;5.60;;;;;;;8.96;84.69;97286.72;5046471;28;20207;-54
2022/03/15 11:17:59;;;;;;;7.47;4.57;;;;;;;8.99;82.87;97286.50;5046555;28;20215;-53
2022/03/15 11:20:26;;;;;;;6.73;4.27;;;;;;;9.04;81.50;97264.19;5041349;28;20246;-54
2022/03/15 11:22:54;;;;;;;6.80;4.80;;;;;;;9.15;81.92;97270.31;5042322;28;20537;-56
2022/03/15 11:25:22;;;;;;;6.07;4.83;;;;;;;9.23;83.04;97267.94;5042806;28;20207;-55
2022/03/15 11:27:52;;;;;;;8.00;4.43;;;;;;;9.20;82.25;97262.91;5042772;28;20212;-54
2022/03/15 11:30:21;;;;;;;6.53;4.80;;;;;;;9.20;82.16;97254.97;5041405;28;20214;-55
2022/03/15 11:32:49;;;;;;;5.40;4.80;;;;;;;9.29;83.17;97245.47;5040844;28;20203;-54
2022/03/15 11:35:19;;;;;;;8.30;5.77;;;;;;;9.33;84.02;97244.28;5042634;28;20211;-53
2022/03/15 11:37:48;;;;;;;7.37;4.60;;;;;;;9.39;83.26;97241.16;5038754;28;20235;-53
2022/03/15 11:40:14;;;;;;;7.73;5.10;;;;;;;9.43;83.52;97239.97;5043677;28;20333;-53
2022/03/15 11:42:43;;;;;;;8.07;5.03;;;;;;;9.44;83.44;97239.00;5045080;28;20199;-56